map of ZFA home
ZFA - Airport
Location
City:  Faro, Yukon, Canada
Name:Faro Airport
ICAO:CZFA
IATA:ZFA

Details
Type:Airport (Airfield)
Use:Public/Civil
Latitude:6212'25"N (62.206944)
Longitude:13322'24"W (-133.373332)
Elevation:2350 ft (716 m)
Variation:19.85E (WMM2015 magnetic declination)
-0.37 annual change
Runways:1
Longest:3997 ft (1218 m)

Weather
METAR:CZFA 161700Z 13020G25KT 15SM -SN SCT030 OVC048 M10/M11 A2922 RMK SC3SC5 VIS N 5 SLP967

Related Locations
Nearby:
Farthest:YWKS: 10558 mi / 16992 km
Wilkins Runway (Casey), Upper Peterson Glacier, AQ

Find:

   beyond  
but within

Other Information
Maps:
NOTAMs:
Links:
Sources:

  
  • flag of Canada
  • flag of Yukon
  

Airport Diagram

Airport diagram for ZFA

Airport diagram PDF

Sectional Chart

Flight Planning
at skyvector.com

Satellite Image

Google Maps Satellite view

 

Copyright © 2004-2018 Karl L. Swartz. All rights reserved.
The Great Circle Mapper name and logo are trademarks of the Great Circle Mapper.
All other trademarks mentioned herein belong to their respective owners.
Please see credits for attibutions and further copyright information.

  Follow gcmap on Facebook Follow gcmap on Twitter Follow gcmap on Google+ GCmap on LinkedIn

hCard Microformat

Geo Microformat